Tiempo atmosférico en la estación meteorológica de Puerto De La Cruz, Santa Cruz de Tenerife (25 m.)



Fecha
DESCASC
Temp. máxima en grados centígrados (hora)
DESCASC
Temp. mínima en grados centígrados (hora)
DESCASC
Temp. media en grados centígrados
DESCASC
Racha de viento máxima en m/sg (hora)
DESCASC
Velocidad máxima media en intervalos de 10 minutos(hora)
DESCASC
Precipitaciones diarias en mm
DESCASC
Precipitaciones de 00:00 a 06:00 en mm
DESCASC
Precipitaciones de 06:00 a 12:00 en mm
DESCASC
Precipitaciones de 12:00 a 18:00 en mm
DESCASC
Precipitaciones de 18:00 a 24:00 en mm
DESCASC
05-04-2020 24.6 (12:00) 18.2 (07:30) 21.4 4.44 (05:40) 2.5 (05:40) 0 0 0 0 0
04-04-2020 25.9 (13:40) 18.3 (06:40) 22.1 8.06 (16:00) 3.89 (16:00) 0 0 0 0 0
03-04-2020 25.4 (16:30) 17.1 (07:20) 21.3 4.72 (15:30) 3.89 (15:30) 0 0 0 0 0
02-04-2020 22.3 (15:10) 15.6 (00:00) 18.9 4.44 (11:40) 2.5 (11:50) 0 0 0 0 0
01-04-2020 24.8 (16:10) 16 (00:00) 20.4 5 (14:50) 3.89 (23:10) 0 0 0 0 0
31-03-2020 21.7 (15:00) 17.4 (00:00) 19.6 3.89 (04:20) 2.22 (04:20) 0 0 0 0 0
30-03-2020 22.1 (16:10) 15.4 (00:00) 18.8 7.22 (18:00) 3.89 (18:00) 0 0 0 0 0
29-03-2020 21 (13:50) 15.1 (00:00) 18.1 3.61 (00:50) 2.22 (03:30) 0 0 0 0 0
28-03-2020 21.1 (18:00) 15.3 (00:00) 18.2 5.28 (12:10) 2.78 (12:10) 0.3 0.1 0.2 0 0
27-03-2020 21 (15:10) 16.7 (00:00) 18.9 7.78 (17:50) 4.72 (17:40) 0.9 0 0 0 0.9
26-03-2020 22.3 (16:30) 15.2 (00:00) 18.7 4.17 (06:20) 2.78 (18:00) 0 0 0 0 0
25-03-2020 22.4 (11:50) 16.5 (00:00) 19.4 6.11 (18:10) 3.61 (16:30) 0 0 0 0 0
24-03-2020 21.7 (16:00) 16 (00:00) 18.9 9.17 (13:30) 6.39 (13:50) 1.2 0.9 0.2 0.1 0
23-03-2020 19.6 (17:40) 14.5 (00:00) 17.1 14.72 (05:10) 8.33 (00:10) 13.5 2.2 4.6 4.8 1.9
22-03-2020 21.1 (14:50) 14.7 (16:30) 17.9 13.61 (23:59) 8.06 (15:30) 3.8 0 0 3.4 0.4
21-03-2020 21.2 (13:10) 16.5 (00:00) 18.9 15 (11:20) 4.72 (11:20) 0.1 0.1 0 0 0
20-03-2020 23.8 (14:40) 16.4 (00:00) 20.1 9.44 (16:20) 6.67 (16:30) 0.2 0 0.1 0 0.1
19-03-2020 21.6 (14:40) 16.9 (00:00) 19.3 6.67 (08:30) 4.44 (16:00) 3.9 0 2.6 0.7 0.6
18-03-2020 20.9 (13:50) 14.8 (00:00) 17.8 11.11 (02:10) 7.5 (02:10) 0.7 0.2 0.5 0 0
17-03-2020 20.4 (13:10) 15.2 (00:00) 17.8 13.61 (01:00) 10.28 (01:00) 0.6 0 0 0 0.6
16-03-2020 23.8 (13:50) 15.9 (00:00) 19.8 11.39 (06:50) 8.33 (06:50) 4.2 3.3 0 0.5 0.4
15-03-2020 20.8 (15:00) 14.8 (00:00) 17.8 11.39 (12:40) 7.78 (09:20) 0.2 0.1 0 0 0.1
14-03-2020 22.3 (13:40) 16.4 (00:00) 19.3 7.78 (14:50) 6.11 (14:50) 0 0 0 0 0
13-03-2020 21.5 (13:20) 17.7 (06:00) 19.6 10 (14:00) 7.78 (14:10) 0 0 0 0 0
12-03-2020 23.1 (15:50) 15.5 (00:00) 19.3 7.78 (18:30) 5.83 (18:00) 0 0 0 0 0
11-03-2020 24.9 (15:30) 15.2 (00:00) 20 3.61 (03:20) 2.22 (04:50) 0 0 0 0 0
10-03-2020 23.9 (13:50) 16.6 (00:00) 20.3 6.11 (18:20) 4.44 (18:20) 0 0 0 0 0

Gráficas

Temp. máximas Temp. mínimas Temp. medias Precipitaciones Rachas de viento máximas Velocidades máximas media en intervalos de 10 minutos

Datos horarios

Fecha y hora oficial Temperatura (ºC) Velocidad del viento (km/h) Dirección del viento Racha (km/h) Dirección de racha Precipitación (mm) Presión (hPa) Tendencia (hPa) Humedad (%)
2020-04-08 23:00:00 20.8 12 Nordeste 17 Este 0 1018.4 2.1 94
2020-04-08 22:00:00 21.1 11 Nordeste 16 Este 0 1017.6 1.3 93
2020-04-08 21:00:00 21.6 5 Este 13 Este 0 1016.7 1 92
2020-04-08 20:00:00 23 10 Nordeste 15 Nordeste 0 1016.3 0.5 86
2020-04-08 19:00:00 23.9 12 Nordeste 19 Nordeste 0 1016.3 0.4 82
2020-04-08 18:00:00 24.9 12 Nordeste 18 Nordeste 0 1015.7 -1.1 79
2020-04-08 17:00:00 25.5 12 Nordeste 18 Nordeste 0 1015.8 -0.9 75
2020-04-08 16:00:00 24.9 15 Nordeste 19 Este 0 1015.9 -2.4 76
2020-04-08 15:00:00 25.4 13 Nordeste 19 Nordeste 0 1016.8 -1.1 78
2020-04-08 14:00:00 24.4 14 Nordeste 19 Nordeste 0 1016.7 -1.4 82
2020-04-08 13:00:00 22.8 10 Nordeste 15 Nordeste 0 1018.3 0.8 85
2020-04-08 12:00:00 23.5 10 Nordeste 14 Nordeste 0 1017.9 -0.4 82
2020-04-08 11:00:00 21.8 7 Norte 17 Nordeste 0 1018.1 0.2 86
2020-04-08 10:00:00 21.3 11 Este 19 Este 0 1017.5 -1.1 84
2020-04-08 09:00:00 20.3 5 Sudeste 12 Sur 0 1018.3 0.8 87
2020-04-08 08:00:00 18.8 4 Sur 11 Sudeste 0 1017.9 -0.1 91
2020-04-08 07:00:00 18.6 3 Sur 10 Sur 0 1018.6 -0.5 90
2020-04-08 06:00:00 18.6 5 Sur 12 Sudeste 0 1017.5 -1.2 90
2020-04-08 05:00:00 18.5 7 Sur 13 Sur 0 1018 -1.6 90
2020-04-08 04:00:00 18.8 4 Sur 8 Sur 0 1019.1 -0.6 90
2020-04-08 03:00:00 18.9 4 Sur 13 Sur 0 1018.7 -0.5 90
2020-04-08 02:00:00 19.2 4 Sudeste 10 Sur 0 1019.6 -0.2 91
2020-04-08 01:00:00 19.6 3 Sudeste 19 Este 0 1019.7 0.7 93
2020-04-08 00:00:00 20.6 13 Nordeste 15 Nordeste 0 1019.2 1.6 93
2020-04-07 23:00:00 21.1 8 Nordeste 13 Nordeste 0 1019.8 2.8 92
2020-04-07 22:00:00 21.3 10 Nordeste 13 Nordeste 0 1019 1.7 92
2020-04-07 21:00:00 21.1 11 Nordeste 15 Nordeste 0 1017.6 0.7 92
2020-04-07 20:00:00 22.3 8 Nordeste 11 Nordeste 0 1017 0.5 88
2020-04-07 19:00:00 23.1 5 Nordeste 13 Norte 0 1017.3 0.4 86
2020-04-07 18:00:00 24.4 7 Nordeste 12 Nordeste 0 1016.9 -0.7 80
2020-04-07 17:00:00 25.6 9 Nordeste 13 Nordeste 0 1016.5 -1.4 75
2020-04-07 16:00:00 25.5 10 Nordeste 14 Norte 0 1016.9 -1.5 75
2020-04-07 15:00:00 24.7 10 Nordeste 16 Nordeste 0 1017.6 -1.7 79
2020-04-07 14:00:00 24.9 13 Nordeste 18 Nordeste 0 1017.9 -0.9 78
2020-04-07 13:00:00 24.1 15 Nordeste 19 Nordeste 0 1018.4 -0.8 81
2020-04-07 12:00:00 23.8 6 Nordeste 15 Este 0 1019.3 0.4 79
2020-04-07 11:00:00 22.9 10 Nordeste 13 Nordeste 0 1018.8 0.2 81
2020-04-07 10:00:00 21.8 3 Nordeste 6 Este 0 1019.2 1.1 81
2020-04-07 09:00:00 19.6 5 Sur 10 Sudeste 0 1018.9 0 83
2020-04-07 08:00:00 18.1 7 Sur 14 Sudeste 0 1018.6 -0.4 87
2020-04-07 07:00:00 18.2 8 Sur 12 Sur 0 1018.1 -1.3 89
2020-04-07 06:00:00 18.7 5 Sur 15 Sur 0 1018.9 -0.5 89
2020-04-07 05:00:00 18.7 4 Sudeste 12 Sur 0 1019 -1.1 88
2020-04-07 04:00:00 19 6 Sur 10 Sur 0 1019.4 -0.8 90
2020-04-07 03:00:00 18.5 5 Sur 11 Sudeste 0 1019.4 -0.9 89
2020-04-07 02:00:00 18.8 5 Sur 11 Sur 0 1020.1 0.2 88
2020-04-07 01:00:00 19 5 Sur 9 Sur 0 1020.2 0.8 88
2020-04-07 00:00:00 19.6 4 Sur 7 Sur 0 1020.3 1.7 87
2020-04-06 23:00:00 20.4 2 Este 8 Nordeste 0 1019.9 2.2 91
2020-04-06 22:00:00 21.5 4 Este 11 Nordeste 0 1019.4 1.8 90
2020-04-06 21:00:00 22.1 6 Nordeste 12 Nordeste 0 1018.6 1.2 88
2020-04-06 20:00:00 23.5 8 Nordeste 10 Nordeste 0 1017.7 -0.2 82
2020-04-06 19:00:00 24.5 8 Nordeste 13 Nordeste 0 1017.6 -0.4 78
2020-04-06 18:00:00 25.6 8 Nordeste 13 Nordeste 0 1017.4 -1.2 74
2020-04-06 17:00:00 23.8 7 Nordeste 13 Nordeste 0 1017.9 -0.5 80
2020-04-06 16:00:00 23.6 9 Nordeste 14 Nordeste 0 1018 -1.2 81
2020-04-06 15:00:00 23.6 8 Nordeste 13 Nordeste 0 1018.6 -0.6 82
2020-04-06 14:00:00 25.6 9 Nordeste 12 Nordeste 0 1018.4 -1.2 75
2020-04-06 13:00:00 23.5 6 Nordeste 10 Nordeste 0 1019.2 -0.2 79
2020-04-06 12:00:00 23.9 7 Nordeste 12 Este 0 1019.2 0 80
2020-04-06 11:00:00 21.8 6 Nordeste 9 Norte 0 1019.6 0.7 80
2020-04-06 10:00:00 21.3 4 Norte 7 Norte 0 1019.4 1.3 77
2020-04-06 09:00:00 19.9 3 Sur 9 Sur 0 1019.2 1.6 78
2020-04-06 08:00:00 18 4 Sur 11 Sudeste 0 1018.9 1.5 81
2020-04-06 07:00:00 18.2 6 Sur 12 Sur 0 1018.1 0.3 80
2020-04-06 06:00:00 18.4 5 Sur 9 Sur 0 1017.6 -0.3 83
2020-04-06 05:00:00 18.6 6 Sur 11 Sur 0 1017.4 -1.4 82
2020-04-06 04:00:00 19.2 5 Sur 12 Sur 0 1017.8 -1.3 87
2020-04-06 03:00:00 19.5 6 Sur 11 Sur 0 1017.9 -1.4 86
2020-04-06 02:00:00 20.2 2 Sur 6 Oeste 0 1018.8 0 90
2020-04-06 01:00:00 20.8 3 Oeste 9 Noroeste 0 1019.1 1.1 94
2020-04-06 00:00:00 21.1 3 Oeste 10 Oeste 0 1019.3 2.1 94
2020-04-05 23:00:00 21.2 3 Sudoeste 10 Oeste 0 1018.8 2.4 94
2020-04-05 22:00:00 21.2 5 Oeste 9 Sudoeste 0 1018 2.2 94
2020-04-05 21:00:00 21.2 7 Noroeste 11 Noroeste 0 1017.2 2.4 93
2020-04-05 20:00:00 21.7 6 Noroeste 12 Noroeste 0 1016.4 1.2 92
2020-04-05 19:00:00 22.3 4 Noroeste 9 Noroeste 0 1015.8 0.6 89
2020-04-05 18:00:00 23.4 5 Noroeste 9 Noroeste 0 1014.8 -0.8 86
2020-04-05 17:00:00 23.5 4 Noroeste 9 Noroeste 0 1015.2 -0.9 86
2020-04-05 16:00:00 23.7 4 Norte 8 Norte 0 1015.2 -0.9 86
2020-04-05 15:00:00 23.4 3 Norte 9 Noroeste 0 1015.6 -0.2 89
2020-04-05 14:00:00 22.5 6 Noroeste 13 Noroeste 0 1016.1 1.4 90
2020-04-05 13:00:00 21.9 8 Oeste 14 Noroeste 0 1016.1 1.1 89
2020-04-05 12:00:00 23.6 3 Norte 8 Noroeste 0 1015.8 0.3 74
2020-04-05 11:00:00 23.9 6 Nordeste 8 Nordeste 0 1014.7 -0.1 70
2020-04-05 10:00:00 22.4 5 Nordeste 14 Sur 0 1015 1.1 76
2020-04-05 09:00:00 20.3 5 Sur 12 Sur 0 1015.5 2.5 87
2020-04-05 08:00:00 18.6 4 Sur 12 Sur 0 1014.8 1.5 87
2020-04-05 07:00:00 18.7 3 Sur 11 Sur 0 1013.9 -0.1 78
2020-04-05 06:00:00 19 6 Sur 16 Sudeste 0 1013 0.4 74
2020-04-05 05:00:00 18.6 5 Sur 11 Sur 0 1013.3 -0.4 80
2020-04-05 04:00:00 19.2 4 Sudoeste 12 Sur 0 1014 1 74
2020-04-05 03:00:00 19 5 Sur 11 Sur 0 1012.6 -1.2 75
2020-04-05 02:00:00 19.3 4 Sur 8 Sur 0 1013.7 1 84
2020-04-05 01:00:00 19.8 0 Calma 7 Sur 0 1013 0.9 85
2020-04-05 00:00:00 20.6 0 Calma 7 Norte 0 1013.8 3.3 87
2020-04-04 23:00:00 20.5 0 Calma 9 Este 0 1012.7 2.6 89
2020-04-04 22:00:00 21.1 6 Este 11 Este 0 1012.1 2.2 91
2020-04-04 21:00:00 21.5 6 Este 9 Este 0 1010.5 1 90
2020-04-04 20:00:00 21.9 4 Noroeste 10 Noroeste 0 1010.1 1 90
2020-04-04 19:00:00 22.9 3 Nordeste 10 Oeste 0 1009.9 1.3 88
2020-04-04 18:00:00 22.3 5 Noroeste 18 Oeste 0 1009.5 0.2 86
2020-04-04 17:00:00 23.4 6 Noroeste 23 Noroeste 0 1009.1 -0.4 80
2020-04-04 16:00:00 22.8 14 Oeste 29 Noroeste 0 1008.6 -0.8 80
2020-04-04 15:00:00 23.3 10 Noroeste 19 Noroeste 0 1009.3 0 75
2020-04-04 14:00:00 23.6 4 Noroeste 15 Este 0 1009.5 0.3 70
2020-04-04 13:00:00 25 7 Nordeste 12 Nordeste 0 1009.4 0.5 67
2020-04-04 12:00:00 23.6 6 Nordeste 12 Este 0 1009.3 1.2 71
2020-04-04 11:00:00 22.2 0 Calma 12 Sudoeste 0 1009.2 1.5 71
2020-04-04 10:00:00 20.9 8 Oeste 19 Sudoeste 0 1008.9 1.7 71
2020-04-04 09:00:00 20.1 6 Sudeste 17 Sudeste 0 1008.1 1.7 65
2020-04-04 08:00:00 18.9 9 Sudeste 16 Sudeste 0 1007.7 0.9 74
2020-04-04 07:00:00 18.5 8 Sudeste 12 Sudeste 0 1007.2 0.2 67
2020-04-04 06:00:00 19.1 0 Calma 13 Sur 0 1006.4 -0.8 65
2020-04-04 05:00:00 19.2 7 Sur 14 Sudeste 0 1006.8 -0.7 67
2020-04-04 04:00:00 19.2 5 Sur 14 Sur 0 1007 -0.8 70
2020-04-04 03:00:00 19.4 5 Sur 9 Sur 0 1007.2 -0.8 75
2020-04-04 02:00:00 19.9 4 Sur 11 Sur 0 1007.5 -0.2 78
2020-04-04 01:00:00 20.1 4 Sur 10 Sur 0 1007.8 1 79
2020-04-04 00:00:00 20.3 0 Calma 8 Nordeste 0 1008 1.8 86
2020-04-03 23:00:00 20.7 0 Calma 13 Nordeste 0 1007.7 1.7 90
2020-04-03 22:00:00 21 0 Calma 15 Este 0 1006.8 1.1 88
2020-04-03 21:00:00 21.7 8 Nordeste 13 Nordeste 0 1006.2 0.5 79
2020-04-03 20:00:00 22.3 0 Calma 12 Nordeste 0 1006 0.5 74
2020-04-03 19:00:00 23 0 Calma 14 Nordeste 0 1005.7 -0.5 72
2020-04-03 18:00:00 23.3 5 Norte 12 Nordeste 0 1005.7 -1.3 72
2020-04-03 17:00:00 25.1 10 Nordeste 14 Nordeste 0 1005.5 -2.2 64
2020-04-03 16:00:00 24.8 11 Nordeste 17 Nordeste 0 1006.2 -2.5 65
2020-04-03 15:00:00 24.3 13 Nordeste 17 Nordeste 0 1007 -2.2 66
2020-04-03 14:00:00 23.8 11 Nordeste 15 Nordeste 0 1007.7 -2.3 67
2020-04-03 13:00:00 22.5 12 Nordeste 16 Nordeste 0 1008.7 -0.8 70
2020-04-03 12:00:00 22 7 Nordeste 10 Nordeste 0 1009.2 -1 73
2020-04-03 11:00:00 21.3 7 Nordeste 11 Este 0 1010 0 80
2020-04-03 10:00:00 20.7 5 Nordeste 9 Nordeste 0 1009.5 -0.3 80
2020-04-03 09:00:00 17.9 5 Sur 10 Sur 0 1010.2 -0.2 83
2020-04-03 08:00:00 17.3 6 Sur 13 Sudeste 0 1010 -0.1 83
2020-04-03 07:00:00 17.3 5 Sur 12 Sur 0 1009.8 -1.4 84
2020-04-03 06:00:00 17.4 6 Sur 10 Sur 0 1010.4 -0.9 84
2020-04-03 05:00:00 18.2 3 Sur 9 Sur 0 1010.1 -2.1 81
2020-04-03 04:00:00 18.5 2 Sur 9 Sur 0 1011.2 -1.9 81
2020-04-03 03:00:00 18.3 0 Calma 8 Sur 0 1011.3 -2.4 81
2020-04-03 02:00:00 19.3 0 Calma 6 Noroeste 0 1012.2 -1.4 88
2020-04-03 01:00:00 19.5 0 Calma 8 Oeste 0 1013.1 -0.5 88
2020-04-03 00:00:00 19.4 3 Sudoeste 12 Sudoeste 0 1013.7 0.5 88
2020-04-02 23:00:00 19.5 4 Noroeste 12 Sudoeste 0 1013.6 0.6 89
2020-04-02 22:00:00 19.5 6 Oeste 12 Noroeste 0 1013.6 1.4 88
2020-04-02 21:00:00 19.7 5 Oeste 12 Sudoeste 0 1013.2 0.9 86
2020-04-02 20:00:00 20.3 6 Oeste 11 Noroeste 0 1013 0.4 80
2020-04-02 19:00:00 21.1 5 Norte 10 Norte 0 1012.2 -1.1 77
2020-04-02 18:00:00 21.6 4 Norte 13 Norte 0 1012.3 -1.7 77
2020-04-02 17:00:00 21.5 6 Norte 12 Norte 0 1012.6 -2.2 74
2020-04-02 16:00:00 21.7 4 Noroeste 13 Noroeste 0 1013.3 -2 74
2020-04-02 15:00:00 21.5 5 Noroeste 12 Noroeste 0 1014 -1.9 72
2020-04-02 14:00:00 20.2 9 Noroeste 15 Oeste 0 1014.8 -0.7 74
2020-04-02 13:00:00 20.5 6 Noroeste 15 Sudoeste 0 1015.3 0.3 76
2020-04-02 12:00:00 20.1 8 Oeste 16 Sudoeste 0 1015.9 1.3 77
2020-04-02 11:00:00 19.4 6 Noroeste 10 Oeste 0 1015.5 0.9 75
2020-04-02 10:00:00 18.8 5 Noroeste 8 Noroeste 0 1015 0.8 74
2020-04-02 09:00:00 17.5 4 Sur 10 Sur 0 1014.6 0.7 68
2020-04-02 08:00:00 15.7 6 Sur 11 Sur 0 1014.6 0.6 79
2020-04-02 07:00:00 15.9 5 Sur 12 Sur 0 1014.2 -0.1 77
2020-04-02 06:00:00 16.2 5 Sur 13 Sudeste 0 1013.9 -1 80
2020-04-02 05:00:00 16.4 8 Sur 14 Sur 0 1014 -1.5 81
2020-04-02 04:00:00 16.6 7 Sur 13 Sur 0 1014.3 -1.8 79
2020-04-02 03:00:00 17.1 4 Sur 12 Sur 0 1014.9 -0.7 78
2020-04-02 02:00:00 17.5 6 Sur 11 Sur 0 1015.5 -0.2 75
2020-04-02 01:00:00 18 5 Sur 13 Sur 0 1016.1 1.2 75
2020-04-02 00:00:00 19.2 6 Este 18 Nordeste 0 1015.6 1.1 82
2020-04-01 23:00:00 19.7 14 Nordeste 17 Nordeste 0 1015.7 1.6 85
2020-04-01 22:00:00 20 11 Nordeste 14 Nordeste 0 1014.9 1.4 83
2020-04-01 21:00:00 20.2 8 Nordeste 14 Nordeste 0 1014.5 1.4 80
2020-04-01 20:00:00 20.9 9 Nordeste 14 Nordeste 0 1014.1 1.3 76
2020-04-01 19:00:00 22.2 9 Nordeste 15 Nordeste 0 1013.5 0.8 70
2020-04-01 18:00:00 23.7 11 Nordeste 16 Nordeste 0 1013.1 -0.3 64
2020-04-01 17:00:00 24 12 Nordeste 17 Nordeste 0 1012.8 -1.4 64
2020-04-01 16:00:00 24.4 11 Nordeste 16 Nordeste 0 1012.7 -1.9 63
2020-04-01 15:00:00 24.1 13 Nordeste 18 Nordeste 0 1013.4 -1.5 65
2020-04-01 14:00:00 23.1 12 Nordeste 15 Nordeste 0 1014.2 -1.1 69
2020-04-01 13:00:00 22.9 9 Nordeste 15 Nordeste 0 1014.6 -0.5 68
2020-04-01 12:00:00 22.8 10 Nordeste 12 Nordeste 0 1014.9 0.3 67
2020-04-01 11:00:00 21.7 8 Nordeste 13 Nordeste 0 1015.3 0.9 75
2020-04-01 10:00:00 20.1 6 Nordeste 11 Sur 0 1015.1 1.3 80
2020-04-01 09:00:00 17.9 5 Sur 12 Sur 0 1014.6 0.9 82
2020-04-01 08:00:00 16 8 Sur 12 Sur 0 1014.4 0.5 85
2020-04-01 07:00:00 16.6 8 Sur 13 Sur 0 1013.8 -0.3 83
2020-04-01 06:00:00 16.5 9 Sur 14 Sur 0 1013.7 -0.3 82
2020-04-01 05:00:00 17 4 Sur 13 Sur 0 1013.9 -0.4 83
2020-04-01 04:00:00 17.5 5 Sur 11 Sudeste 0 1014.1 -0.3 80
2020-04-01 03:00:00 18.2 3 Sur 9 Sur 0 1014 -0.5 78
2020-04-01 02:00:00 18.8 3 Sur 9 Sur 0 1014.3 -0.3 80
2020-04-01 01:00:00 19.3 0 Calma 10 Nordeste 0 1014.4 0.7 83
2020-04-01 00:00:00 19.7 0 Calma 10 Nordeste 0 1014.5 1.7 81
2020-03-31 23:00:00 19.7 2 Norte 7 Norte 0 1014.6 2.3 84
2020-03-31 22:00:00 19.8 4 Norte 7 Norte 0 1013.7 1.5 83
2020-03-31 21:00:00 20.2 5 Nordeste 7 Norte 0 1012.8 0.8 84
2020-03-31 20:00:00 20.5 4 Norte 9 Norte 0 1012.3 0.4 80
2020-03-31 19:00:00 21.5 3 Norte 9 Nordeste 0 1012.2 0.3 76
2020-03-31 18:00:00 21.2 4 Norte 9 Norte 0 1012 -0.2 77
2020-03-31 17:00:00 21 5 Noroeste 10 Noroeste 0 1011.9 0 76
2020-03-31 16:00:00 21 6 Noroeste 10 Noroeste 0 1011.9 -0.2 77
2020-03-31 15:00:00 21.7 5 Noroeste 10 Noroeste 0 1012.2 0 75
2020-03-31 14:00:00 21 4 Norte 9 Norte 0 1011.9 0.1 79
2020-03-31 13:00:00 21 4 Norte 9 Nordeste 0 1012.1 0.3 81
2020-03-31 12:00:00 20.4 3 Norte 9 Noroeste 0 1012.2 0.7 84
2020-03-31 11:00:00 20.4 4 Noroeste 9 Oeste 0 1011.8 0.5 82
2020-03-31 10:00:00 19.4 6 Noroeste 10 Noroeste 0 1011.8 0.7 87
2020-03-31 09:00:00 19.4 0 Calma 10 Sur 0 1011.5 0.7 81
2020-03-31 08:00:00 17.5 6 Sur 11 Sur 0 1011.3 0.5 85
2020-03-31 07:00:00 18.5 3 Sur 8 Sur 0 1011.1 0.4 90
2020-03-31 06:00:00 19 3 Sudoeste 9 Sudoeste 0 1010.8 0 94
2020-03-31 05:00:00 19 3 Oeste 14 Noroeste 0 1010.8 -0.4 94
2020-03-31 04:00:00 19.8 4 Oeste 12 Sudoeste 0 1010.7 -0.9 83
2020-03-31 03:00:00 19.4 4 Sur 13 Sudoeste 0 1010.8 -1.2 76
2020-03-31 02:00:00 19.4 6 Sur 12 Sur 0 1011.2 -0.9 78
2020-03-31 01:00:00 19.3 5 Sur 14 Sur 0 1011.6 -0.5 80
2020-03-31 00:00:00 19.9 2 Sudeste 8 Este 0 1012 0.1 85
2020-03-30 23:00:00 20.2 2 Este 6 Noroeste 0 1012.1 0.6 85
2020-03-30 22:00:00 20 2 Noroeste 11 Noroeste 0 1012.1 1.1 84
2020-03-30 21:00:00 20.2 4 Oeste 16 Oeste 0 1011.9 0.8 91
2020-03-30 20:00:00 20.3 9 Oeste 22 Sudoeste 0 1011.5 0.4 89
2020-03-30 19:00:00 20.2 11 Oeste 25 Oeste 0 1011 -0.6 86
2020-03-30 18:00:00 20.6 14 Oeste 26 Oeste 0 1011.1 -1 83
2020-03-30 17:00:00 21.5 8 Noroeste 13 Noroeste 0 1011.1 -2 75
2020-03-30 16:00:00 21.6 4 Norte 17 Noroeste 0 1011.6 -2.1 74
2020-03-30 15:00:00 20.9 7 Noroeste 12 Noroeste 0 1012.1 -2.1 77
2020-03-30 14:00:00 20.7 9 Noroeste 15 Noroeste 0 1013.1 -0.8 79
2020-03-30 13:00:00 20.4 4 Norte 9 Noroeste 0 1013.7 0 77
2020-03-30 12:00:00 19.9 5 Norte 8 Norte 0 1014.2 -0.1 80
2020-03-30 11:00:00 19.8 4 Norte 6 Nordeste 0 1013.9 -0.3 79
2020-03-30 10:00:00 19.7 3 Nordeste 6 Nordeste 0 1013.7 -0.1 78
2020-03-30 09:00:00 17 4 Sur 12 Sur 0 1014.3 0.9 87
2020-03-30 08:00:00 15.5 7 Sur 10 Sudeste 0 1014.2 0.4 89
2020-03-30 07:00:00 15.6 6 Sur 10 Sur 0 1013.8 -0.6 88
2020-03-30 06:00:00 15.5 6 Sur 12 Sur 0 1013.4 -2 86
2020-03-30 05:00:00 15.8 6 Sur 12 Sur 0 1013.8 -2.1 85
2020-03-30 04:00:00 16 7 Sur 13 Sudeste 0 1014.4 -1.7 84
2020-03-30 03:00:00 16.4 5 Sur 10 Sur 0 1015.4 -0.7 84
2020-03-30 02:00:00 16.7 4 Sur 10 Sur 0 1015.9 -0.2 81
2020-03-30 01:00:00 16.5 6 Sur 10 Sur 0 1016.1 0.1 78
2020-03-30 00:00:00 17.5 2 Sur 9 Sur 0 1016.1 1 84
2020-03-29 23:00:00 18.4 3 Sur 7 Sur 0 1016.1 0.7 84
2020-03-29 22:00:00 18.4 0 Calma 6 Noroeste 0 1016 0.3 85
2020-03-29 21:00:00 18.9 2 Noroeste 9 Noroeste 0 1015.1 -0.6 83
2020-03-29 20:00:00 19.9 4 Noroeste 12 Noroeste 0 1015.4 -0.3 79
2020-03-29 19:00:00 19.8 6 Oeste 13 Noroeste 0 1015.7 -0.4 78
2020-03-29 18:00:00 19.8 6 Noroeste 11 Noroeste 0 1015.7 -1.1 77
2020-03-29 17:00:00 20.4 6 Noroeste 12 Noroeste 0 1015.7 -1.5 75
2020-03-29 16:00:00 20.5 8 Noroeste 13 Noroeste 0 1016.1 -1.4 70
2020-03-29 15:00:00 20.5 6 Noroeste 13 Noroeste 0 1016.8 -0.7 69
2020-03-29 14:00:00 20.7 4 Noroeste 9 Noroeste 0 1017.2 -0.3 68
2020-03-29 13:00:00 19.9 4 Noroeste 8 Noroeste 0 1017.5 0.2 71
2020-03-29 12:00:00 19.8 4 Norte 9 Norte 0 1017.5 -0.1 69
2020-03-29 11:00:00 19.2 4 Noroeste 6 Noroeste 0 1017.5 0.2 70
2020-03-29 10:00:00 19.5 2 Nordeste 11 Sudeste 0 1017.3 0.4 68
2020-03-29 09:00:00 16.6 5 Sur 12 Sudeste 0 1017.6 0.8 70
2020-03-29 08:00:00 15.2 4 Sur 13 Sur 0 1017.3 0.3 75
2020-03-29 07:00:00 15.2 3 Sur 12 Sur 0 1016.9 -0.4 76
2020-03-29 06:00:00 15.2 5 Sur 13 Sudeste 0 1016.8 -1 82
2020-03-29 05:00:00 15.1 7 Sur 13 Sudeste 0 1017 -1.5 85
2020-03-29 04:00:00 15.5 5 Sur 11 Sur 0 1017.3 -1.4 84
2020-03-29 00:00:00 16.5 5 Sur 10 Sur 0 1018.7 1.4 84
2020-03-28 23:00:00 17.6 4 Sur 10 Sur 0 1018.3 1.7 84
2020-03-28 22:00:00 17.4 3 Sur 8 Sur 0 1018.1 1.9 88
2020-03-28 21:00:00 18.6 4 Este 8 Nordeste 0 1017.3 1.6 86
2020-03-28 20:00:00 18.8 4 Nordeste 7 Nordeste 0 1016.6 1.1 84
2020-03-28 19:00:00 19.4 3 Nordeste 6 Norte 0 1016.2 0.9 81
2020-03-28 18:00:00 20.2 3 Nordeste 8 Nordeste 0 1015.7 0.5 74
2020-03-28 17:00:00 20.6 5 Nordeste 13 Nordeste 0 1015.5 -0.2 79
2020-03-28 16:00:00 20.2 3 Norte 8 Nordeste 0 1015.3 -0.6 79
2020-03-28 15:00:00 19.8 6 Nordeste 11 Nordeste 0 1015.2 -1.2 80
2020-03-28 14:00:00 19.4 4 Noroeste 12 Este 0 1015.7 -0.7 75
2020-03-28 13:00:00 19.8 4 Este 19 Norte 0 1015.9 -0.5 77
2020-03-28 12:00:00 18.8 5 Norte 17 Norte 0 1016.4 0.1 83
2020-03-28 11:00:00 19.3 4 Noroeste 9 Noroeste 0 1016.4 0.6 79
2020-03-28 10:00:00 19.4 0 Calma 9 Este 0 1016.4 1 77
2020-03-28 09:00:00 17.1 4 Oeste 12 Noroeste 0 1016.3 1.6 90
2020-03-28 08:00:00 16.6 0 Calma 8 Sur 0 1015.8 1.2 88
2020-03-28 07:00:00 15.9 3 Sudoeste 7 Oeste 0.2 1015.4 1.2 90
2020-03-28 06:00:00 15.4 5 Sur 15 Sur 0 1014.7 0.6 87
2020-03-28 05:00:00 15.4 3 Sur 11 Sur 0 1014.6 0.3 86
2020-03-28 04:00:00 15.6 5 Sur 12 Sudeste 0 1014.2 -0.5 84
2020-03-28 03:00:00 16.2 2 Sur 8 Sudeste 0 1014.1 -1.2 87
2020-03-28 02:00:00 16.8 0 Calma 8 Sur 0 1014.3 -0.6 90
2020-03-28 01:00:00 16.5 5 Sur 12 Sur 0.1 1014.7 0.2 90
2020-03-28 00:00:00 17 7 Oeste 20 Oeste 0.1 1015.3 1.5 90
2020-03-27 23:00:00 17.9 7 Oeste 17 Noroeste 0 1014.9 2.3 90
2020-03-27 22:00:00 17.4 5 Oeste 14 Sudoeste 0 1014.5 2.1 93
2020-03-27 21:00:00 17.5 6 Oeste 23 Noroeste 0.8 1013.8 2.3 93
2020-03-27 20:00:00 18.2 5 Sudoeste 15 Noroeste 0 1012.6 1.5 90
2020-03-27 19:00:00 17.9 13 Noroeste 25 Noroeste 0 1012.4 1.5 91
2020-03-27 18:00:00 18.8 14 Noroeste 28 Noroeste 0 1011.5 0 90
2020-03-27 17:00:00 20.3 12 Oeste 19 Noroeste 0 1011.1 -1 77
2020-03-27 16:00:00 20.4 12 Oeste 19 Noroeste 0 1010.9 -1.6 76
2020-03-27 15:00:00 20.1 8 Noroeste 18 Noroeste 0 1011.5 -1.3 79
2020-03-27 14:00:00 20.1 11 Noroeste 17 Oeste 0 1012.1 -1 78
2020-03-27 13:00:00 20.2 8 Noroeste 14 Oeste 0 1012.5 -0.7 77
2020-03-27 12:00:00 19.8 7 Noroeste 14 Noroeste 0 1012.8 0.2 79
2020-03-27 11:00:00 19.6 4 Noroeste 11 Noroeste 0 1013.1 0.4 81
2020-03-27 10:00:00 18.9 6 Noroeste 13 Noroeste 0 1013.2 1.1 83
2020-03-27 09:00:00 19.4 2 Sur 8 Sur 0 1012.6 0.6 83
2020-03-27 08:00:00 17.5 0 Calma 7 Sudeste 0 1012.7 0.8 88
2020-03-27 07:00:00 17 0 Calma 7 Sur 0 1012.1 0 88
2020-03-27 06:00:00 17 3 Sur 12 Sudeste 0 1012 -0.2 87
2020-03-27 05:00:00 17.1 2 Sudeste 10 Sur 0 1011.9 -0.7 87
2020-03-27 04:00:00 16.9 4 Sur 13 Sur 0 1012.1 -1 90
2020-03-27 03:00:00 17.5 0 Calma 7 Sur 0 1012.2 -1.2 82
2020-03-27 02:00:00 17.6 3 Sur 9 Sudeste 0 1012.6 -0.6 81
2020-03-27 01:00:00 17.8 3 Sudeste 10 Sur 0 1013.1 -0.1 82
2020-03-27 00:00:00 17.7 2 Sur 6 Sur 0 1013.4 0.6 77
2020-03-26 23:00:00 17.8 0 Calma 9 Sur 0 1013.2 0.9 82
2020-03-26 22:00:00 18.3 5 Este 12 Este 0 1013.2 1 84
2020-03-26 21:00:00 18.4 8 Este 12 Este 0 1012.8 0.8 82
2020-03-26 20:00:00 18.9 8 Nordeste 12 Nordeste 0 1012.3 0.8 81
2020-03-26 19:00:00 19.9 6 Nordeste 13 Nordeste 0 1012.2 0.3 78
2020-03-26 18:00:00 19.8 10 Nordeste 14 Nordeste 0 1012 -0.6 78
2020-03-26 17:00:00 22.2 8 Nordeste 14 Nordeste 0 1011.5 -1.4 71
2020-03-26 16:00:00 19.7 7 Norte 10 Norte 0 1011.9 -1.7 71
2020-03-26 15:00:00 19.9 3 Norte 9 Norte 0 1012.6 -1.7 74
2020-03-26 14:00:00 19.8 4 Norte 10 Nordeste 0 1012.9 -1.6 72
2020-03-26 13:00:00 20.3 4 Noroeste 9 Noroeste 0 1013.6 -0.9 71
2020-03-26 12:00:00 19.8 5 Nordeste 12 Noroeste 0 1014.3 0.3 72
2020-03-26 11:00:00 19.1 3 Norte 10 Norte 0 1014.5 0.8 71
2020-03-26 10:00:00 18.5 2 Noroeste 6 Noroeste 0 1014.5 0.6 74
2020-03-26 09:00:00 17.7 3 Sur 8 Sur 0 1014 0.6 70
2020-03-26 08:00:00 16.7 5 Sur 11 Sur 0 1013.7 0.8 67
2020-03-26 07:00:00 15.3 5 Sur 15 Sudeste 0 1013.9 0.7 74
2020-03-26 06:00:00 15.3 6 Sur 13 Sur 0 1013.4 -0.1 75
2020-03-26 05:00:00 16 4 Sur 9 Sur 0 1012.9 -1.2 74
2020-03-26 04:00:00 16.2 4 Sur 8 Sur 0 1013.2 -1.5 80
2020-03-26 03:00:00 16.6 4 Sur 8 Sur 0 1013.5 -1.6 80
2020-03-26 02:00:00 17.3 2 Sur 7 Sudoeste 0 1014.1 -1.1 76
2020-03-26 01:00:00 17.3 3 Sur 11 Este 0 1014.7 -0.3 79
2020-03-26 00:00:00 17.7 2 Sudeste 10 Este 0 1015.1 0.5 77
2020-03-25 23:00:00 18 2 Este 14 Este 0 1015.2 1 77
2020-03-25 22:00:00 18.3 12 Este 18 Nordeste 0 1015 0.7 82
2020-03-25 21:00:00 18.4 12 Este 16 Este 0 1014.6 0 80
2020-03-25 20:00:00 18.8 6 Nordeste 10 Este 0 1014.2 -0.2 76
2020-03-25 19:00:00 18.8 5 Este 22 Sudoeste 0 1014.3 0 67
2020-03-25 18:00:00 18.4 6 Sur 17 Sur 0 1014.6 0 71
2020-03-25 17:00:00 19.7 10 Nordeste 17 Nordeste 0 1014.4 -0.6 79
2020-03-25 16:00:00 20.2 9 Nordeste 18 Nordeste 0 1014.3 -1.1 76
2020-03-25 15:00:00 20.7 11 Nordeste 17 Este 0 1014.6 -1 73
2020-03-25 14:00:00 21.1 9 Nordeste 12 Nordeste 0 1015 -1 73
2020-03-25 13:00:00 21.4 7 Nordeste 17 Nordeste 0 1015.4 -0.5 70
2020-03-25 12:00:00 21.9 12 Nordeste 16 Nordeste 0 1015.6 -0.5 67
2020-03-25 11:00:00 21.7 11 Nordeste 15 Nordeste 0 1016 0.3 69
2020-03-25 10:00:00 20.2 2 Nordeste 6 Nordeste 0 1015.9 0.8 70
2020-03-25 09:00:00 18.2 0 Calma 4 Sudoeste 0 1016.1 1.5 79
2020-03-25 08:00:00 17.4 3 Sur 8 Este 0 1015.7 1.3 79
2020-03-25 07:00:00 17 3 Sur 9 Sur 0 1015.1 0.7 81
2020-03-25 06:00:00 17.3 0 Calma 10 Sur 0 1014.6 -0.2 82
2020-03-25 05:00:00 17 5 Sur 9 Sudeste 0 1014.4 -1 81
2020-03-25 04:00:00 17.1 0 Calma 8 Sudeste 0 1014.4 -1.5 78
2020-03-25 03:00:00 16.5 4 Sur 9 Sur 0 1014.8 -1.4 76
2020-03-25 02:00:00 16.7 4 Sur 10 Sur 0 1015.4 -1.3 74
2020-03-25 01:00:00 16.7 5 Sur 10 Sur 0 1015.9 -1.1 73
2020-03-25 00:00:00 16.9 3 Sur 8 Sudeste 0 1016.2 -0.1 75
2020-03-24 23:00:00 16.9 0 Calma 9 Sur 0 1016.7 0.9 77
2020-03-24 22:00:00 17.1 4 Sur 8 Sur 0 1017 1.7 87
2020-03-24 21:00:00 18.1 0 Calma 7 Nordeste 0 1016.3 1.2 84
2020-03-24 20:00:00 18.3 5 Norte 13 Norte 0 1015.8 1.3 81
2020-03-24 19:00:00 18.8 6 Norte 16 Norte 0 1015.3 0.7 75
2020-03-24 18:00:00 19.1 6 Norte 18 Norte 0 1015.1 -0.2 80
2020-03-24 17:00:00 20 4 Noroeste 10 Norte 0 1014.5 -1.3 80
2020-03-24 16:00:00 21 4 Nordeste 15 Este 0 1014.6 -1.6 73
2020-03-24 15:00:00 20.5 9 Este 28 Norte 0 1015.3 -1 82
2020-03-24 14:00:00 18 23 Norte 33 Nordeste 0.1 1015.8 -0.8 90
2020-03-24 13:00:00 19.9 6 Norte 15 Nordeste 0 1016.2 -0.2 79
2020-03-24 12:00:00 20.2 3 Norte 9 Noroeste 0 1016.3 0.2 76
2020-03-24 11:00:00 19.6 6 Noroeste 13 Noroeste 0 1016.6 0.8 81
2020-03-24 10:00:00 19.4 0 Calma 6 Noroeste 0 1016.4 0.9 79
2020-03-24 09:00:00 17 0 Calma 9 Sur 0.2 1016.1 1 89
2020-03-24 08:00:00 16.6 4 Sur 8 Sur 0 1015.8 0.9 88
2020-03-24 07:00:00 16.5 5 Sur 8 Sur 0 1015.5 0.6 89
2020-03-24 06:00:00 16.4 5 Sur 13 Sudeste 0 1015.1 0 88
2020-03-24 05:00:00 16.3 6 Sur 11 Sudeste 0.4 1014.9 -0.7 90
2020-03-24 04:00:00 16.9 4 Sudoeste 11 Oeste 0 1014.9 -0.3 87
2020-03-24 03:00:00 16.6 3 Sur 12 Sudoeste 0 1015.1 -0.4 90
2020-03-24 02:00:00 16.6 6 Sudoeste 12 Sudoeste 0.5 1015.6 0.1 92
2020-03-24 01:00:00 16.8 5 Sur 11 Sur 0 1015.2 -0.4 87
2020-03-24 00:00:00 17.5 0 Calma 13 Oeste 0 1015.5 0.5 84
2020-03-23 23:00:00 17 6 Sur 13 Sur 0.1 1015.5 1.3 82
2020-03-23 22:00:00 17.4 3 Sudoeste 13 Sur 0 1015.6 2.4 90
2020-03-23 21:00:00 16.8 9 Sur 19 Sur 0 1015 2.3 90
2020-03-23 20:00:00 16.9 4 Sudoeste 18 Oeste 1.8 1014.2 1.6 90
2020-03-23 19:00:00 18.2 7 Sudoeste 17 Oeste 0 1013.2 0.6 75
2020-03-23 18:00:00 18.7 5 Oeste 12 Oeste 0.1 1012.7 0.2 74
2020-03-23 17:00:00 18.6 2 Sudoeste 15 Sudoeste 0 1012.6 -0.6 84
2020-03-23 16:00:00 18.3 2 Sur 15 Nordeste 0.5 1012.6 -0.6 88
2020-03-23 15:00:00 18.5 0 Calma 23 Noroeste 0.2 1012.5 -1.1 86
2020-03-23 14:00:00 17.1 5 Sudoeste 22 Noroeste 1.8 1013.2 0.2 91
2020-03-23 13:00:00 17.3 4 Sudoeste 20 Sudoeste 2.2 1013.2 0.6 85
2020-03-23 12:00:00 16.3 10 Sudoeste 19 Sudoeste 2.5 1013.6 1.6 86
2020-03-23 11:00:00 17.7 6 Noroeste 27 Norte 0 1013 1.9 77
2020-03-23 10:00:00 17.4 19 Norte 30 Nordeste 0.5 1012.6 1.9 78
2020-03-23 09:00:00 15.5 7 Sudoeste 30 Noroeste 0.6 1012 1.1 92
2020-03-23 08:00:00 16.2 0 Calma 31 Noroeste 1 1011.1 1.6 92
2020-03-23 07:00:00 17 7 Noroeste 28 Noroeste 0 1010.7 0.5 80
2020-03-23 06:00:00 16.9 16 Noroeste 53 Norte 1.9 1010.9 0.6 83
2020-03-23 05:00:00 16.9 18 Noroeste 42 Noroeste 0.1 1009.5 -0.9 84
2020-03-23 04:00:00 16.3 10 Oeste 35 Noroeste 0 1010.2 -1.1 86
2020-03-23 03:00:00 16 10 Sudoeste 41 Oeste 0.2 1010.3 -1.2 85
2020-03-23 02:00:00 17.6 21 Oeste 40 Noroeste 0 1010.4 -1.3 71
2020-03-23 01:00:00 17.1 15 Oeste 44 Noroeste 0 1011.3 -1.1 87
2020-03-23 00:00:00 17.2 23 Oeste 49 Noroeste 0 1011.5 -1.2 83
2020-03-22 23:00:00 17.7 14 Oeste 31 Sudoeste 0 1011.7 -0.6 78
2020-03-22 22:00:00 17.6 13 Sudoeste 29 Sudoeste 0 1012.4 0.1 77
2020-03-22 21:00:00 17 14 Oeste 37 Noroeste 0.4 1012.7 0.3 85
2020-03-22 20:00:00 17.1 6 Sudoeste 36 Oeste 0 1012.3 -0.6 77
2020-03-22 19:00:00 17.8 9 Oeste 27 Sudoeste 0 1012.3 -0.9 75
2020-03-22 18:00:00 17 6 Sudoeste 24 Sudoeste 0.4 1012.4 0.4 90
2020-03-22 17:00:00 15.4 9 Sudoeste 39 Noroeste 2.2 1012.9 0 98
2020-03-22 16:00:00 16.2 16 Oeste 46 Noroeste 0.8 1013.2 -0.8 97
2020-03-22 15:00:00 20.1 14 Oeste 25 Noroeste 0 1012 -2.3 64
2020-03-22 14:00:00 20.1 15 Oeste 24 Noroeste 0 1012.9 -2.9 62
2020-03-22 13:00:00 20.1 9 Oeste 19 Noroeste 0 1014 -2.2 66
2020-03-22 12:00:00 19.6 8 Noroeste 12 Noroeste 0 1014.3 -2.9 60
2020-03-22 11:00:00 19 3 Noroeste 23 Noroeste 0 1015.8 -1 72
2020-03-22 10:00:00 18.5 4 Oeste 15 Noroeste 0 1016.2 0 69
2020-03-22 09:00:00 16.1 8 Sur 17 Sur 0 1017.2 1.1 88
2020-03-22 08:00:00 16.9 5 Oeste 27 Noroeste 0 1016.8 0.7 79
2020-03-22 07:00:00 16.5 4 Sudoeste 14 Sur 0 1016.2 -0.5 69
2020-03-22 06:00:00 16.5 3 Sur 10 Sur 0 1016.1 -1.3 71
2020-03-22 05:00:00 16.6 3 Sur 12 Sur 0 1016.1 -2.1 72
2020-03-22 04:00:00 16.5 4 Sur 10 Sur 0 1016.7 -2.2 74
2020-03-22 03:00:00 17.5 5 Sudoeste 12 Sur 0 1017.4 -1.6 69
2020-03-22 02:00:00 17.2 3 Sur 14 Sur 0 1018.2 -1.2 66
2020-03-22 01:00:00 17.3 5 Sur 10 Sur 0 1018.9 -0.9 70
2020-03-22 00:00:00 17.4 3 Sur 10 Sur 0 1019 -0.2 74
2020-03-21 23:00:00 17.4 5 Sur 10 Sur 0 1019.4 0.8 75
2020-03-21 22:00:00 17.5 6 Sur 11 Sur 0 1019.8 1.4 78
2020-03-21 21:00:00 17.6 5 Sudeste 19 Nordeste 0 1019.2 1.1 79
2020-03-21 20:00:00 17.6 0 Calma 14 Norte 0 1018.6 0.6 77
2020-03-21 19:00:00 18.2 8 Norte 18 Norte 0 1018.4 0.3 73
2020-03-21 18:00:00 18.9 5 Noroeste 13 Norte 0 1018.1 -0.3 67
2020-03-21 17:00:00 19.8 5 Norte 14 Norte 0 1018 -1.3 62
2020-03-21 16:00:00 19.8 3 Norte 7 Norte 0 1018.1 -2 58
2020-03-21 15:00:00 20.3 6 Nordeste 18 Nordeste 0 1018.4 -2.2 61
2020-03-21 14:00:00 20.1 10 Nordeste 16 Nordeste 0 1019.3 -1.6 59
2020-03-21 13:00:00 19.9 6 Nordeste 16 Norte 0 1020.1 -0.9 62
2020-03-21 12:00:00 19.9 13 Nordeste 54 Nordeste 0 1020.6 -0.1 62
2020-03-21 11:00:00 19.4 10 Este 18 Nordeste 0 1020.9 0.7 64
2020-03-21 10:00:00 18.2 7 Este 24 Nordeste 0 1021 1.1 68
2020-03-21 09:00:00 17.2 15 Nordeste 26 Nordeste 0 1020.7 1.1 78
2020-03-21 08:00:00 16.9 5 Sudeste 10 Sudeste 0 1020.2 1.3 72
2020-03-21 07:00:00 16.9 8 Este 18 Este 0 1019.9 1 75
2020-03-21 06:00:00 17 7 Nordeste 22 Nordeste 0 1019.6 0.4 79
2020-03-21 05:00:00 17.2 3 Sur 27 Nordeste 0 1018.9 -0.8 75
2020-03-21 04:00:00 17.5 15 Nordeste 22 Nordeste 0 1018.9 -1.4 77
2020-03-21 03:00:00 17.4 7 Este 22 Nordeste 0 1019.2 -1.4 81
2020-03-21 02:00:00 17.6 15 Nordeste 20 Nordeste 0 1019.7 -0.9 83
2020-03-21 01:00:00 17.3 8 Nordeste 21 Norte 0.1 1020.3 -0.4 87
2020-03-21 00:00:00 16.9 6 Sur 12 Sudoeste 0.1 1020.6 0.7 94
2020-03-20 23:00:00 17.3 5 Sur 19 Norte 0 1020.6 1.4 94
2020-03-20 22:00:00 17.7 17 Norte 22 Norte 0 1020.7 2 92
2020-03-20 21:00:00 18 4 Este 21 Nordeste 0 1019.9 1.9 88
2020-03-20 20:00:00 17.9 13 Este 25 Nordeste 0 1019.2 1.4 90
2020-03-20 19:00:00 18.6 20 Nordeste 26 Nordeste 0 1018.7 1.5 90
2020-03-20 18:00:00 20.3 13 Nordeste 22 Nordeste 0 1018 0.4 79
2020-03-20 17:00:00 21.1 16 Nordeste 34 Nordeste 0 1017.8 -0.4 78
2020-03-20 16:00:00 23.4 10 Nordeste 15 Nordeste 0 1017.2 -1.5 60
2020-03-20 15:00:00 23.6 6 Nordeste 17 Nordeste 0 1017.6 -1.5 58
2020-03-20 14:00:00 23.4 12 Nordeste 19 Nordeste 0 1018.2 -0.9 61
2020-03-20 13:00:00 22.4 16 Nordeste 24 Nordeste 0 1018.7 -0.8 67
2020-03-20 12:00:00 21.5 14 Nordeste 20 Nordeste 0 1019.1 -0.3 71
2020-03-20 11:00:00 21 12 Nordeste 17 Nordeste 0 1019.1 0.7 73
2020-03-20 10:00:00 19.1 8 Nordeste 14 Norte 0 1019.5 1.6 76
2020-03-20 09:00:00 18 5 Sur 11 Sudoeste 0 1019.4 2.2 88
2020-03-20 08:00:00 17.9 4 Nordeste 12 Noroeste 0.1 1018.4 1.3 87
2020-03-20 07:00:00 17.3 5 Sur 13 Nordeste 0 1017.9 0.7 88
2020-03-20 06:00:00 17.3 6 Sudeste 15 Sur 0 1017.2 -0.5 84
2020-03-20 05:00:00 17 5 Sur 14 Sur 0 1017.1 -1 87
2020-03-20 04:00:00 16.4 7 Sur 17 Sur 0 1017.2 -1.3 90
2020-03-20 03:00:00 17.1 5 Sur 9 Sur 0 1017.7 -1.1 90
2020-03-20 02:00:00 17.3 4 Sur 11 Sur 0 1018.1 -1.2 92
2020-03-20 01:00:00 18.1 0 Calma 9 Sudeste 0 1018.5 -0.8 91
2020-03-20 00:00:00 18.4 3 Sudoeste 13 Sur 0 1018.8 -0.2 87
2020-03-19 23:00:00 18 3 Sur 15 Nordeste 0.5 1019.3 1.1 93
2020-03-19 22:00:00 18.5 2 Sudeste 8 Nordeste 0.1 1019.3 1.7 91
2020-03-19 21:00:00 18.8 8 Nordeste 13 Nordeste 0 1019 1.9 91
2020-03-19 20:00:00 19 4 Nordeste 10 Este 0 1018.2 1.1 90
2020-03-19 19:00:00 19.8 7 Nordeste 12 Nordeste 0 1017.6 0.6 88
2020-03-19 18:00:00 20.2 8 Nordeste 19 Nordeste 0 1017.1 0.3 87
2020-03-19 17:00:00 19.7 13 Nordeste 22 Este 0 1017.1 0.1 88
2020-03-19 16:00:00 19.7 16 Nordeste 22 Norte 0 1017 -0.7 89
2020-03-19 15:00:00 20.9 12 Nordeste 20 Nordeste 0 1016.8 -1.6 88
2020-03-19 14:00:00 19.7 2 Este 14 Este 0.7 1017 -1.6 92
2020-03-19 13:00:00 19.7 0 Calma 11 Sudeste 0 1017.7 -0.6 90
2020-03-19 12:00:00 19.3 0 Calma 10 Noroeste 0.4 1018.4 0.6 90
2020-03-19 11:00:00 18.4 3 Sur 13 Sudeste 0.2 1018.6 1.8 90
2020-03-19 10:00:00 17.9 5 Sur 15 Sur 1.9 1018.3 1.4 90
2020-03-19 09:00:00 18.5 3 Sudeste 24 Norte 0.1 1017.8 1.1 88
2020-03-19 08:00:00 17.9 3 Sur 15 Sur 0 1016.8 0.4 79
2020-03-19 07:00:00 17.7 3 Oeste 18 Noroeste 0 1016.9 0.1 86
2020-03-19 06:00:00 17.5 5 Sur 12 Sur 0 1016.7 -0.2 80
2020-03-19 05:00:00 17.7 8 Sur 13 Sur 0 1016.4 -0.5 81
2020-03-19 04:00:00 18.3 5 Oeste 14 Noroeste 0 1016.8 -0.5 82
2020-03-19 03:00:00 18.4 6 Norte 17 Noroeste 0 1016.9 -0.9 78
2020-03-19 02:00:00 18.8 3 Noroeste 14 Noroeste 0 1016.9 -1.2 70
2020-03-19 01:00:00 18 2 Sudoeste 15 Sur 0 1017.3 -0.6 65
2020-03-19 00:00:00 16.9 4 Sur 8 Sudeste 0 1017.8 0 74
2020-03-18 23:00:00 17.7 3 Sur 14 Sudeste 0 1018.1 0.6 74
2020-03-18 22:00:00 18 3 Sur 13 Sur 0 1017.9 0.8 70
2020-03-18 21:00:00 18.1 4 Sur 10 Sur 0 1017.8 0.9 73
2020-03-18 20:00:00 18.6 4 Norte 8 Oeste 0 1017.5 0.5 73
2020-03-18 19:00:00 18.9 3 Oeste 16 Norte 0 1017.1 0.1 73
2020-03-18 18:00:00 18.6 8 Norte 18 Norte 0 1016.9 -0.1 73
2020-03-18 17:00:00 18.7 5 Norte 28 Norte 0 1017 -0.1 71
2020-03-18 16:00:00 19.3 8 Norte 17 Norte 0 1017 -0.7 68
2020-03-18 15:00:00 19.7 9 Norte 18 Nordeste 0 1017 -1.2 66
2020-03-18 14:00:00 20.1 4 Norte 9 Norte 0 1017.1 -1.4 68
2020-03-18 13:00:00 19.4 3 Norte 18 Norte 0 1017.7 -1.4 68
2020-03-18 12:00:00 18.8 8 Norte 19 Norte 0 1018.2 -1 65
2020-03-18 11:00:00 19.5 3 Sur 21 Nordeste 0 1018.5 -0.7 61
2020-03-18 10:00:00 18 6 Sur 14 Sur 0 1019.1 0.1 72
2020-03-18 09:00:00 16.6 5 Sur 22 Sur 0 1019.2 1 84
2020-03-18 08:00:00 15.1 9 Sur 18 Sur 0 1019.2 0.9 92
2020-03-18 07:00:00 15.1 7 Sudeste 23 Norte 0.5 1019 0.5 93
2020-03-18 06:00:00 16.4 2 Sur 12 Sudeste 0 1018.2 -0.6 81
2020-03-18 05:00:00 16.1 6 Sur 16 Sur 0 1018.3 -1.1 82
2020-03-18 04:00:00 16 7 Sur 24 Sur 0 1018.5 -1.1 81
2020-03-18 03:00:00 15.1 13 Sur 40 Nordeste 0.2 1018.8 -1.7 91
2020-03-18 02:00:00 16.6 9 Este 17 Sur 0 1019.4 -1.4 84
2020-03-18 01:00:00 16.1 7 Sur 18 Sur 0 1019.6 -1.3 84
2020-03-18 00:00:00 16 6 Este 39 Norte 0 1020.5 0.2 90
2020-03-17 23:00:00 16.3 5 Sur 15 Sur 0.1 1020.8 1 88
2020-03-17 22:00:00 16 8 Sur 22 Este 0.4 1020.9 2.1 90
2020-03-17 21:00:00 17 5 Sudeste 17 Este 0.1 1020.3 1.6 85
2020-03-17 20:00:00 16.5 8 Sudeste 30 Nordeste 0 1019.8 1.5 93
2020-03-17 19:00:00 17.8 3 Este 24 Nordeste 0 1018.8 0.6 82
2020-03-17 18:00:00 18.6 10 Nordeste 29 Nordeste 0 1018.7 0.4 78
2020-03-17 17:00:00 19.2 14 Nordeste 30 Nordeste 0 1018.3 -0.5 75
2020-03-17 16:00:00 19.3 22 Nordeste 29 Nordeste 0 1018.2 -1.1 77
2020-03-17 15:00:00 19.3 21 Nordeste 38 Nordeste 0 1018.3 -2.2 78
2020-03-17 14:00:00 18.2 13 Este 34 Nordeste 0 1018.8 -1.7 76
2020-03-17 13:00:00 19.9 14 Este 25 Este 0 1019.3 -1.5 68
2020-03-17 12:00:00 18.1 20 Nordeste 35 Nordeste 0 1020.5 -0.7 78
2020-03-17 11:00:00 18.2 19 Nordeste 29 Este 0 1020.5 0 75
2020-03-17 10:00:00 17.2 9 Este 24 Nordeste 0 1020.8 0.8 80
2020-03-17 09:00:00 15.8 18 Este 31 Nordeste 0 1021.2 1.7 91
2020-03-17 08:00:00 15.4 8 Sudeste 30 Nordeste 0 1020.5 1.1 90
2020-03-17 07:00:00 16.2 12 Este 36 Nordeste 0 1020 1 86
2020-03-17 06:00:00 16.3 13 Este 26 Nordeste 0 1019.5 0.1 82
2020-03-17 05:00:00 15.5 6 Sudeste 32 Este 0 1019.4 -0.5 86
2020-03-17 04:00:00 16.1 7 Sudeste 28 Este 0 1019 -0.9 77
2020-03-17 03:00:00 16.5 8 Este 17 Sudeste 0 1019.4 -0.6 79
2020-03-17 02:00:00 16.1 15 Este 46 Nordeste 0 1019.9 -0.4 86
2020-03-17 01:00:00 16.3 37 Nordeste 49 Nordeste 0 1019.9 -0.6 91
2020-03-17 00:00:00 17.9 27 Nordeste 34 Nordeste 0 1020 -0.3 81
2020-03-16 23:00:00 18 19 Nordeste 37 Este 0 1020.3 0.7 81
2020-03-16 22:00:00 18.3 18 Nordeste 28 Este 0 1020.5 0.9 86
2020-03-16 21:00:00 18.2 21 Nordeste 33 Nordeste 0 1020.3 0.9 87
2020-03-16 20:00:00 18.3 20 Nordeste 26 Nordeste 0 1019.6 0.6 90
2020-03-16 19:00:00 17.4 4 Sur 17 Sur 0.4 1019.6 0.6 94
2020-03-16 18:00:00 17 8 Sur 35 Nordeste 0.4 1019.4 0.6 94
2020-03-16 17:00:00 19 19 Nordeste 37 Nordeste 0 1019 0.1 83
2020-03-16 16:00:00 19.1 23 Nordeste 32 Este 0.1 1019 -0.3 83
2020-03-16 15:00:00 20.5 19 Nordeste 35 Nordeste 0 1018.8 -1.2 83
2020-03-16 14:00:00 21.8 20 Nordeste 29 Nordeste 0 1018.9 -1.8 64
2020-03-16 13:00:00 22.8 14 Nordeste 21 Nordeste 0 1019.3 -1.4 59
2020-03-16 12:00:00 21.5 9 Este 19 Nordeste 0 1020 -0.5 57
2020-03-16 11:00:00 20.5 11 Este 25 Este 0 1020.7 0.4 66
2020-03-16 10:00:00 19.2 7 Este 21 Sudeste 0 1020.7 1.2 66
2020-03-16 09:00:00 19.2 6 Este 17 Este 0 1020.5 1.5 71
2020-03-16 08:00:00 17.3 5 Sudeste 32 Este 0 1020.3 1.6 78
2020-03-16 07:00:00 17.4 23 Este 41 Nordeste 0 1019.5 0.6 87
2020-03-16 06:00:00 17.2 8 Sudeste 28 Nordeste 0 1019 -0.3 87
2020-03-16 05:00:00 17.7 15 Este 33 Nordeste 1 1018.7 -0.7 90
2020-03-16 04:00:00 16.6 4 Sudeste 15 Sudeste 1.6 1018.9 -1.1 91
2020-03-16 03:00:00 16.1 8 Sur 34 Este 0.4 1019.3 -0.7 93
2020-03-16 02:00:00 17.1 5 Sudeste 26 Sur 0.1 1019.4 -0.4 84
2020-03-16 01:00:00 16.5 5 Sur 23 Sur 0.2 1020 0.8 92
2020-03-16 00:00:00 16.4 12 Sur 39 Nordeste 0.1 1020 0.9 89
2020-03-15 23:00:00 17.9 5 Norte 10 Norte 0 1019.8 1.8 80
2020-03-15 22:00:00 18.3 2 Sur 11 Nordeste 0 1019.2 1.5 75
2020-03-15 21:00:00 18.7 2 Sudeste 9 Este 0 1019.1 1.9 71
2020-03-15 20:00:00 18.7 4 Sur 11 Sur 0 1018 0.4 70
2020-03-15 19:00:00 18.8 4 Sur 21 Este 0 1017.7 -0.6 68
2020-03-15 18:00:00 19.7 4 Nordeste 14 Sur 0 1017.2 -0.3 67
2020-03-15 17:00:00 18.7 8 Sur 28 Nordeste 0 1017.6 -1 69
2020-03-15 16:00:00 17.5 27 Norte 37 Norte 0 1018.3 -1.1 86
2020-03-15 15:00:00 20.8 4 Nordeste 21 Sur 0 1017.5 -1.2 58
2020-03-15 14:00:00 18 7 Sur 19 Este 0 1018.6 -0.6 83
2020-03-15 13:00:00 16.7 7 Oeste 41 Norte 0 1019.4 -0.3 90
2020-03-15 12:00:00 20.1 6 Este 19 Sur 0 1018.7 0.4 65
2020-03-15 11:00:00 18.1 10 Sur 22 Sur 0 1019.2 1.3 73
2020-03-15 10:00:00 16.4 10 Norte 39 Norte 0 1019.7 2.2 86
2020-03-15 09:00:00 18.4 4 Norte 11 Sur 0 1018.3 0.7 68
2020-03-15 08:00:00 17.2 6 Sur 16 Sur 0 1017.9 0.5 69
2020-03-15 07:00:00 16.5 5 Sur 28 Sur 0 1017.5 0.1 75
2020-03-15 06:00:00 15.1 12 Sur 32 Nordeste 0 1017.6 -0.1 93
2020-03-15 05:00:00 16.5 8 Este 30 Nordeste 0 1017.4 -0.6 87
2020-03-15 04:00:00 16.3 5 Sur 14 Sur 0.1 1017.4 -0.7 87
2020-03-15 03:00:00 16.1 7 Sudeste 21 Este 0 1017.7 -0.4 89
2020-03-15 02:00:00 17 16 Nordeste 26 Nordeste 0 1018 -0.1 84
2020-03-15 01:00:00 16.3 6 Sur 12 Sur 0 1018.1 -0.2 71
2020-03-15 00:00:00 16.6 6 Sur 12 Sur 0 1018.1 0.2 77
2020-03-14 23:00:00 17.6 4 Sur 7 Nordeste 0 1018.1 0.7 76
2020-03-14 22:00:00 18.4 4 Norte 13 Norte 0 1018.3 1.4 77
2020-03-14 21:00:00 18.7 4 Nordeste 9 Este 0 1017.9 1.2 73
2020-03-14 20:00:00 18.7 3 Norte 6 Norte 0 1017.4 1 71
2020-03-14 19:00:00 19.7 3 Nordeste 14 Nordeste 0 1016.9 0.6 72
2020-03-14 18:00:00 20.2 12 Nordeste 16 Nordeste 0 1016.7 0.3 71
2020-03-14 17:00:00 20.5 12 Nordeste 21 Nordeste 0 1016.4 -0.4 70
2020-03-14 16:00:00 20.8 18 Nordeste 27 Nordeste 0 1016.3 -1.1 70
2020-03-14 15:00:00 21 21 Nordeste 28 Nordeste 0 1016.4 -1.5 74
2020-03-14 14:00:00 21.3 18 Nordeste 24 Nordeste 0 1016.8 -1.4 71
2020-03-14 13:00:00 21.9 18 Nordeste 26 Nordeste 0 1017.4 -0.8 70
2020-03-14 12:00:00 20.9 20 Nordeste 26 Nordeste 0 1017.9 -0.2 69
2020-03-14 11:00:00 20.6 17 Nordeste 22 Nordeste 0 1018.2 0.2 68
2020-03-14 10:00:00 20 16 Nordeste 23 Nordeste 0 1018.2 0.1 70
2020-03-14 09:00:00 19 15 Este 24 Nordeste 0 1018.1 0.4 77
2020-03-14 08:00:00 17.1 6 Sudeste 19 Sur 0 1018 0.5 75
2020-03-14 07:00:00 16.5 6 Sur 14 Sudeste 0 1018.1 0.3 77
2020-03-14 06:00:00 16.7 7 Sudeste 13 Sudeste 0 1017.7 -0.4 77
2020-03-14 05:00:00 16.5 5 Sur 10 Sudeste 0 1017.5 -1.1 77
2020-03-14 04:00:00 17.5 5 Sudeste 12 Sudeste 0 1017.8 -1.3 76
2020-03-14 03:00:00 17.6 7 Sudeste 16 Nordeste 0 1018.1 -1.5 72
2020-03-14 02:00:00 18.4 14 Este 23 Este 0 1018.6 -1 78
2020-03-14 01:00:00 18.7 15 Este 26 Este 0 1019.1 -0.2 84
2020-03-14 00:00:00 18.8 21 Este 28 Este 0 1019.6 0.9 87
2020-03-13 23:00:00 18.8 21 Nordeste 30 Este 0 1019.6 1.7 89
2020-03-13 22:00:00 19 21 Nordeste 31 Nordeste 0 1019.3 1.5 88
2020-03-13 21:00:00 19.1 18 Nordeste 26 Nordeste 0 1018.7 1.3 89
2020-03-13 20:00:00 19.2 18 Nordeste 27 Nordeste 0 1017.9 0.4 87
2020-03-13 19:00:00 19.2 18 Nordeste 31 Nordeste 0 1017.8 0.3 87
2020-03-13 18:00:00 19.5 23 Nordeste 34 Nordeste 0 1017.4 -0.2 86
2020-03-13 17:00:00 19.7 26 Nordeste 33 Nordeste 0 1017.5 -0.1 85
2020-03-13 16:00:00 20 24 Nordeste 33 Nordeste 0 1017.5 -0.9 84
2020-03-13 15:00:00 20.6 25 Nordeste 36 Nordeste 0 1017.6 -1.4 79
2020-03-13 14:00:00 20.9 24 Nordeste 36 Nordeste 0 1017.6 -1.5 78
2020-03-13 13:00:00 20.9 26 Nordeste 36 Nordeste 0 1018.4 -0.6 77
2020-03-13 12:00:00 20.5 21 Nordeste 32 Nordeste 0 1019 0.2 80
2020-03-13 11:00:00 20.6 15 Nordeste 28 Nordeste 0 1019.1 0.3 77
2020-03-13 10:00:00 20.2 5 Nordeste 15 Nordeste 0 1019 0.5 77
2020-03-13 09:00:00 19.2 5 Este 11 Nordeste 0 1018.8 0.7 82
2020-03-13 08:00:00 18 3 Sudeste 12 Sudeste 0 1018.8 0.9 85
2020-03-13 07:00:00 17.8 3 Sur 12 Sudeste 0 1018.5 0.9 85
2020-03-13 06:00:00 17.8 2 Sudeste 10 Este 0 1018.1 0.2 85
2020-03-13 05:00:00 18.1 4 Sudeste 11 Sudeste 0 1017.9 -0.1 86
2020-03-13 04:00:00 18.5 5 Este 15 Nordeste 0 1017.6 -0.6 88
2020-03-13 03:00:00 18.6 4 Nordeste 12 Nordeste 0 1017.9 -0.4 88
2020-03-13 02:00:00 18.8 8 Nordeste 20 Norte 0 1018 -0.4 90
2020-03-13 01:00:00 19.1 10 Nordeste 23 Nordeste 0 1018.2 0.1 90
2020-03-13 00:00:00 19.3 15 Nordeste 26 Nordeste 0 1018.3 0.7 91
2020-03-12 23:00:00 19.5 16 Nordeste 22 Nordeste 0 1018.4 1.7 91
2020-03-12 22:00:00 19.7 11 Nordeste 17 Nordeste 0 1018.1 1.7 91
2020-03-12 21:00:00 19.5 9 Norte 21 Norte 0 1017.6 1.4 92
2020-03-12 20:00:00 20 13 Nordeste 23 Nordeste 0 1016.7 0.9 92
2020-03-12 19:00:00 20.1 19 Nordeste 28 Nordeste 0 1016.4 1.1 92
2020-03-12 18:00:00 20.7 21 Nordeste 26 Nordeste 0 1016.2 0.9 90
2020-03-12 17:00:00 21.8 15 Nordeste 22 Nordeste 0 1015.8 0 86
2020-03-12 16:00:00 22.8 11 Nordeste 15 Nordeste 0 1015.3 -1.1 81
2020-03-12 15:00:00 21.7 4 Noroeste 17 Oeste 0 1015.3 -1.6 82
2020-03-12 14:00:00 21.5 9 Oeste 18 Oeste 0 1015.8 -1.3 82
2020-03-12 13:00:00 21.5 6 Oeste 13 Oeste 0 1016.4 -0.4 77
2020-03-12 12:00:00 20.4 6 Noroeste 13 Noroeste 0 1016.9 0.3 86
2020-03-12 11:00:00 19.5 8 Oeste 16 Oeste 0 1017.1 0.3 89
2020-03-12 10:00:00 19.6 6 Sudoeste 12 Sudoeste 0 1016.8 0.7 89
2020-03-12 09:00:00 19.6 0 Calma 8 Sudoeste 0 1016.6 1 86
2020-03-12 08:00:00 16.1 4 Sur 13 Sur 0 1016.8 1.6 81
2020-03-12 07:00:00 16.3 4 Sur 8 Sur 0 1016.1 0.1 93
2020-03-12 06:00:00 16 4 Sur 12 Sudoeste 0 1015.6 -0.8 91
2020-03-12 05:00:00 16.8 3 Sur 9 Sur 0 1015.2 -1.4 94
2020-03-12 04:00:00 17.7 3 Sur 15 Nordeste 0 1016 -0.8 94
2020-03-12 03:00:00 16.8 6 Sudeste 12 Sur 0 1016.4 -0.8 93
2020-03-12 02:00:00 17.5 2 Sur 10 Sur 0 1016.6 -0.7 94
2020-03-12 01:00:00 17.9 0 Calma 10 Sudoeste 0 1016.8 -0.2 94
2020-03-12 00:00:00 18.6 5 Sur 11 Sudoeste 0 1017.2 0.9 94
2020-03-11 23:00:00 18.6 2 Sur 6 Sudoeste 0 1017.3 1.8 93
2020-03-11 22:00:00 18.6 3 Sur 5 Sur 0 1017 1.9 91
2020-03-11 21:00:00 19.2 0 Calma 5 Noroeste 0 1016.3 1.4 93
2020-03-11 20:00:00 19.8 0 Calma 10 Oeste 0 1015.5 0.9 91
2020-03-11 19:00:00 20.2 3 Oeste 9 Noroeste 0 1015.1 1 89
2020-03-11 18:00:00 20.7 5 Oeste 12 Noroeste 0 1014.9 0.5 87
2020-03-11 17:00:00 21.6 4 Noroeste 8 Noroeste 0 1014.6 -0.7 78
2020-03-11 16:00:00 22.8 4 Nordeste 9 Nordeste 0 1014.1 -1.9 69
2020-03-11 15:00:00 24.2 6 Nordeste 8 Este 0 1014.4 -2.1 71
2020-03-11 14:00:00 21.1 3 Norte 8 Nordeste 0 1015.3 -1.5 81
2020-03-11 13:00:00 20.6 3 Norte 9 Noroeste 0 1016 -0.7 82
2020-03-11 12:00:00 20.4 4 Noroeste 10 Noroeste 0 1016.5 0 85
2020-03-11 11:00:00 19.2 5 Noroeste 11 Noroeste 0 1016.8 0.7 86
2020-03-11 10:00:00 18.7 0 Calma 5 Sur 0 1016.7 0.7 82
2020-03-11 09:00:00 17.5 2 Sur 9 Sudeste 0 1016.5 0.8 58
2020-03-11 08:00:00 16.4 3 Sur 8 Sur 0 1016.1 0.4 82
2020-03-11 07:00:00 15.5 4 Sur 11 Sur 0 1016 0 81
2020-03-11 06:00:00 15.3 7 Sur 11 Sur 0 1015.7 -1.1 74
2020-03-11 05:00:00 15.9 6 Sur 12 Sur 0 1015.7 -1.6 69
2020-03-11 04:00:00 16.1 5 Sur 13 Sur 0 1016 -1.7 78
2020-03-11 03:00:00 15.8 4 Sur 8 Sur 0 1016.8 -1.3 78
2020-03-11 02:00:00 17.3 3 Sudoeste 8 Sur 0 1017.3 -1.1 87
2020-03-11 01:00:00 17.9 4 Sur 9 Sudoeste 0 1017.7 -0.5 92
2020-03-11 00:00:00 18.3 4 Sur 8 Sur 0 1018.1 0.3 93
2020-03-10 23:00:00 18.7 3 Sur 15 Este 0 1018.4 1.2 92
2020-03-10 22:00:00 19.1 0 Calma 11 Nordeste 0 1018.2 1.4 92
2020-03-10 21:00:00 19.7 10 Nordeste 16 Nordeste 0 1017.8 1.3 92
2020-03-10 20:00:00 20.1 10 Nordeste 16 Nordeste 0 1017.2 0.7 90
2020-03-10 19:00:00 20.7 13 Nordeste 22 Nordeste 0 1016.8 0.1 88
2020-03-10 18:00:00 22.8 7 Nordeste 12 Noroeste 0 1016.5 -0.8 79
2020-03-10 17:00:00 21.8 5 Oeste 14 Noroeste 0 1016.5 -1.1 77
2020-03-10 16:00:00 21.4 8 Noroeste 16 Noroeste 0 1016.7 -1.7 79
2020-03-10 15:00:00 21.6 8 Oeste 19 Sudoeste 0 1017.3 -1.8 78
2020-03-10 14:00:00 22.1 6 Nordeste 21 Nordeste 0 1017.6 -1.9 77
2020-03-10 13:00:00 21 4 Norte 9 Nordeste 0 1018.4 -1.2 80
2020-03-10 12:00:00 21.6 5 Nordeste 12 Nordeste 0 1019.1 -0.5 79
2020-03-10 11:00:00 19.9 5 Noroeste 15 Sudoeste 0 1019.5 0.1 83
2020-03-10 10:00:00 19.5 10 Oeste 17 Sudoeste 0 1019.6 0.6 84
2020-03-10 09:00:00 18.9 5 Sudoeste 13 Sudoeste 0 1019.6 0.7 86
2020-03-10 08:00:00 17.5 4 Sudoeste 12 Sudoeste 0 1019.4 0.9 88
2020-03-10 07:00:00 17.3 4 Sur 13 Sudoeste 0 1019 0.5 88
2020-03-10 06:00:00 17.3 7 Sudoeste 12 Sudoeste 0 1018.9 0.1 85
2020-03-10 05:00:00 17.1 5 Sudoeste 8 Sur 0 1018.5 -0.8 72
2020-03-10 04:00:00 16.9 3 Sur 10 Sur 0 1018.5 -1 69
2020-03-10 03:00:00 17.3 3 Sudoeste 9 Sur 0 1018.8 -0.9 80
2020-03-10 02:00:00 17.1 3 Sudoeste 9 Sudoeste 0 1019.3 -0.7 75
2020-03-10 01:00:00 18.3 4 Sudoeste 17 Sudoeste 0 1019.5 -0.5 90
2020-03-10 00:00:00 18.4 7 Sudoeste 14 Sudoeste 0 1019.7 -0.1 92